Time;durP1;ratioP1;P1;durP2;ratioP2;P2;SDS_P1;SDS_P2;PMS_P1;PMS_P2;Temp;Humidity;BMP_temperature;BMP_pressure;BME280_temperature;BME280_humidity;BME280_pressure;Samples;Min_cycle;Max_cycle;Signal;HPM_P1;HPM_P2
2023/06/02 00:01:31;;;;;;;30.65;27.25;;;10.40;99.90;;;;;;4980551;28;20713;-73
2023/06/02 00:04:01;;;;;;;28.27;25.80;;;10.40;99.90;;;;;;4965451;28;20042;-75
2023/06/02 00:06:30;;;;;;;29.35;26.42;;;10.30;99.90;;;;;;4978669;28;20050;-73
2023/06/02 00:08:58;;;;;;;28.52;25.73;;;10.30;99.90;;;;;;4969855;28;20397;-75
2023/06/02 00:11:25;;;;;;;29.58;26.52;;;10.30;99.90;;;;;;4969456;28;20050;-75
2023/06/02 00:13:52;;;;;;;29.00;26.40;;;10.20;99.90;;;;;;4961806;28;20051;-75
2023/06/02 00:16:19;;;;;;;29.17;26.42;;;10.10;99.90;;;;;;4961467;28;20093;-74
2023/06/02 00:18:47;;;;;;;31.35;28.00;;;10.10;99.90;;;;;;4964107;28;20048;-75
2023/06/02 00:21:14;;;;;;;29.98;26.85;;;10.10;99.90;;;;;;4959923;28;20039;-75
2023/06/02 00:23:41;;;;;;;29.48;26.63;;;10.20;99.90;;;;;;4964031;28;20043;-72
2023/06/02 00:26:08;;;;;;;29.33;26.58;;;10.20;99.90;;;;;;4970315;28;20073;-75
2023/06/02 00:28:34;;;;;;;29.73;26.80;;;10.10;99.90;;;;;;4960508;28;20560;-75
2023/06/02 00:31:01;;;;;;;29.65;26.88;;;10.00;99.90;;;;;;4966247;28;20047;-73
2023/06/02 00:33:28;;;;;;;29.73;26.52;;;10.00;99.90;;;;;;4967249;28;20069;-72
2023/06/02 00:35:55;;;;;;;30.35;27.27;;;9.90;99.90;;;;;;4962026;28;20576;-76
2023/06/02 00:38:22;;;;;;;29.65;26.70;;;9.90;99.90;;;;;;4982596;28;20052;-73
2023/06/02 00:40:49;;;;;;;30.45;27.33;;;9.90;99.90;;;;;;4965365;28;20047;-73
2023/06/02 00:43:15;;;;;;;30.92;28.08;;;10.10;99.90;;;;;;4971254;28;20055;-73
2023/06/02 00:45:42;;;;;;;31.38;28.02;;;10.00;99.90;;;;;;4978672;28;20109;-73
2023/06/02 00:48:10;;;;;;;30.70;27.63;;;9.90;99.90;;;;;;4971426;28;20050;-76
2023/06/02 00:50:38;;;;;;;29.70;26.77;;;9.90;99.90;;;;;;4983615;28;20146;-75
2023/06/02 00:53:05;;;;;;;30.45;27.48;;;9.80;99.90;;;;;;4983563;28;20177;-74
2023/06/02 00:55:31;;;;;;;31.23;28.10;;;9.90;99.90;;;;;;4968417;28;20277;-75
2023/06/02 00:57:59;;;;;;;31.15;27.83;;;9.70;99.90;;;;;;4968296;28;21008;-76
2023/06/02 01:00:26;;;;;;;29.98;26.95;;;9.60;99.90;;;;;;4979573;28;20051;-75
2023/06/02 01:02:57;;;;;;;34.42;28.08;;;9.50;99.90;;;;;;4968951;28;20148;-75
2023/06/02 01:05:25;;;;;;;32.72;28.67;;;9.50;99.90;;;;;;4985856;28;20713;-75
2023/06/02 01:07:58;;;;;;;30.88;27.50;;;9.50;99.90;;;;;;4963522;28;20612;-74
2023/06/02 01:10:26;;;;;;;29.85;26.95;;;9.50;99.90;;;;;;4967442;28;20081;-75
2023/06/02 01:12:54;;;;;;;29.23;26.40;;;9.50;99.90;;;;;;4976964;28;20735;-75
2023/06/02 01:15:21;;;;;;;29.98;27.23;;;9.40;99.90;;;;;;4982818;28;20042;-74
2023/06/02 01:17:50;;;;;;;30.65;27.58;;;9.30;99.90;;;;;;4965587;28;20577;-74
2023/06/02 01:20:21;;;;;;;33.72;27.48;;;9.20;99.90;;;;;;4961975;28;20453;-75
2023/06/02 01:23:09;;;;;;;30.23;27.10;;;9.30;99.90;;;;;;4971625;28;21479;-74
2023/06/02 01:25:36;;;;;;;29.98;27.05;;;9.30;99.90;;;;;;4966726;28;20597;-73
2023/06/02 01:28:06;;;;;;;30.52;27.63;;;9.30;99.90;;;;;;4961450;28;20054;-75
2023/06/02 01:30:34;;;;;;;31.45;28.35;;;9.30;99.90;;;;;;4973523;28;20053;-74
2023/06/02 01:33:21;;;;;;;30.42;27.33;;;9.30;99.90;;;;;;4961254;28;20668;-75
2023/06/02 01:35:54;;;;;;;31.83;28.77;;;9.30;99.90;;;;;;4969753;28;20046;-72
2023/06/02 01:38:23;;;;;;;31.95;28.38;;;9.30;99.90;;;;;;4970962;28;20241;-73
2023/06/02 01:40:51;;;;;;;32.60;28.65;;;9.30;99.90;;;;;;4952056;28;20042;-74
2023/06/02 01:43:19;;;;;;;31.35;28.00;;;9.30;99.90;;;;;;4967485;28;20460;-74
2023/06/02 01:45:46;;;;;;;30.08;27.38;;;9.10;99.90;;;;;;4979847;28;20105;-74
2023/06/02 01:48:14;;;;;;;31.98;28.45;;;9.10;99.90;;;;;;4952144;28;20101;-73
2023/06/02 01:50:41;;;;;;;32.22;28.75;;;9.20;99.90;;;;;;4960195;28;20062;-73
2023/06/02 01:53:08;;;;;;;30.95;27.83;;;9.10;99.90;;;;;;4971097;28;20116;-73
2023/06/02 01:55:34;;;;;;;31.40;27.83;;;9.10;99.90;;;;;;4966835;28;20042;-73
2023/06/02 01:58:02;;;;;;;34.42;27.98;;;9.20;99.90;;;;;;4948903;28;20105;-74
2023/06/02 02:00:29;;;;;;;29.42;26.92;;;9.20;99.90;;;;;;4980655;28;20393;-74
2023/06/02 02:02:57;;;;;;;30.73;27.23;;;9.10;99.90;;;;;;4966065;28;21684;-73
2023/06/02 02:05:24;;;;;;;34.00;28.25;;;9.10;99.90;;;;;;4971866;28;20053;-73
2023/06/02 02:07:50;;;;;;;31.23;27.73;;;9.00;99.90;;;;;;4963434;28;20042;-74
2023/06/02 02:10:18;;;;;;;33.00;28.02;;;9.10;99.90;;;;;;4966420;28;20748;-73
2023/06/02 02:12:45;;;;;;;31.48;28.30;;;9.10;99.90;;;;;;4961505;28;20042;-72
2023/06/02 02:15:13;;;;;;;32.88;28.90;;;9.10;99.90;;;;;;4968949;28;20121;-73
2023/06/02 02:17:46;;;;;;;30.88;28.02;;;9.00;99.90;;;;;;4970201;28;20034;-73
2023/06/02 02:20:18;;;;;;;32.03;28.90;;;8.90;99.90;;;;;;4966254;28;20053;-74
2023/06/02 02:22:46;;;;;;;34.47;27.70;;;8.90;99.90;;;;;;4961886;28;20038;-73
2023/06/02 02:25:14;;;;;;;34.25;27.40;;;8.90;99.90;;;;;;4964949;28;20050;-74
2023/06/02 02:27:42;;;;;;;32.08;28.98;;;8.90;99.90;;;;;;4982690;28;20058;-74
2023/06/02 02:30:09;;;;;;;37.30;28.60;;;8.80;99.90;;;;;;4963317;28;20050;-73
2023/06/02 02:32:40;;;;;;;34.45;28.65;;;8.80;99.90;;;;;;4964609;28;20484;-75
2023/06/02 02:35:07;;;;;;;32.03;27.90;;;8.90;99.90;;;;;;4954987;28;20078;-73
2023/06/02 02:37:36;;;;;;;35.38;28.02;;;8.90;99.90;;;;;;4970871;28;20042;-74
2023/06/02 02:40:15;;;;;;;30.67;27.40;;;8.90;99.90;;;;;;4969549;28;20038;-74
2023/06/02 02:42:42;;;;;;;34.83;28.85;;;8.80;99.90;;;;;;4982958;28;20043;-74
2023/06/02 02:45:09;;;;;;;34.85;27.95;;;8.80;99.90;;;;;;4961979;28;20054;-73
2023/06/02 02:47:37;;;;;;;33.35;28.85;;;8.70;99.90;;;;;;4968481;28;20061;-74
2023/06/02 02:50:05;;;;;;;33.22;27.85;;;8.70;99.90;;;;;;4965360;28;23076;-74
2023/06/02 02:52:32;;;;;;;43.35;30.45;;;8.70;99.90;;;;;;4967138;28;20081;-73
2023/06/02 02:54:59;;;;;;;35.10;28.98;;;8.80;99.90;;;;;;4963623;28;20872;-73
2023/06/02 02:57:26;;;;;;;34.72;29.75;;;8.70;99.90;;;;;;4961469;28;20077;-76
2023/06/02 02:59:53;;;;;;;31.98;28.42;;;8.70;99.90;;;;;;4962776;28;20042;-74
2023/06/02 03:02:19;;;;;;;31.63;28.40;;;8.70;99.90;;;;;;4966366;28;20092;-73
2023/06/02 03:04:46;;;;;;;31.85;27.92;;;8.70;99.90;;;;;;4974605;28;20082;-71
2023/06/02 03:07:13;;;;;;;31.30;27.77;;;8.70;99.90;;;;;;4963467;28;20049;-75
2023/06/02 03:09:41;;;;;;;37.88;28.88;;;8.70;99.90;;;;;;4976962;28;20662;-74
2023/06/02 03:12:08;;;;;;;36.22;27.45;;;8.70;99.90;;;;;;4964731;28;20050;-74
2023/06/02 03:14:36;;;;;;;31.13;28.08;;;8.70;99.90;;;;;;4972272;28;20408;-74
2023/06/02 03:17:03;;;;;;;34.15;28.45;;;8.70;99.90;;;;;;4967083;28;20061;-74
2023/06/02 03:19:31;;;;;;;32.20;28.42;;;8.80;99.90;;;;;;4965542;28;20358;-74
2023/06/02 03:21:58;;;;;;;30.60;27.38;;;8.80;99.90;;;;;;4964726;28;20042;-73
2023/06/02 03:24:26;;;;;;;31.70;27.30;;;8.80;99.90;;;;;;4968095;28;20054;-74
2023/06/02 03:26:55;;;;;;;37.53;30.75;;;8.70;99.90;;;;;;4961923;28;20394;-73
2023/06/02 03:29:22;;;;;;;37.75;27.65;;;8.70;99.90;;;;;;4966714;28;20152;-74
2023/06/02 03:31:52;;;;;;;34.15;27.35;;;8.70;99.90;;;;;;4979678;28;20125;-72
2023/06/02 03:34:20;;;;;;;35.25;28.33;;;8.70;99.90;;;;;;4967851;28;20031;-74
2023/06/02 03:36:51;;;;;;;31.52;28.00;;;8.70;99.90;;;;;;4961237;28;20393;-74
2023/06/02 03:39:18;;;;;;;30.02;27.23;;;8.70;99.90;;;;;;4961038;28;20047;-73
2023/06/02 03:41:45;;;;;;;37.25;28.35;;;8.70;99.90;;;;;;4982873;28;20524;-74
2023/06/02 03:44:12;;;;;;;34.25;26.75;;;8.70;99.90;;;;;;4962032;28;20046;-76
2023/06/02 03:46:38;;;;;;;30.48;27.38;;;8.70;99.90;;;;;;4968292;28;20050;-76
2023/06/02 03:49:06;;;;;;;31.23;27.42;;;8.70;99.90;;;;;;4971716;28;20471;-74
2023/06/02 03:51:33;;;;;;;32.13;26.30;;;8.70;99.90;;;;;;4982044;28;20042;-73
2023/06/02 03:54:01;;;;;;;29.50;26.60;;;8.70;99.90;;;;;;4961895;28;20047;-74
2023/06/02 03:56:29;;;;;;;34.90;25.92;;;8.70;99.90;;;;;;4966242;28;20262;-74
2023/06/02 03:58:56;;;;;;;33.65;30.63;;;8.70;99.90;;;;;;4960788;28;20047;-74
2023/06/02 04:01:24;;;;;;;33.38;30.15;;;8.70;99.90;;;;;;4966912;28;20057;-74
2023/06/02 04:03:53;;;;;;;34.15;29.63;;;8.70;99.90;;;;;;4956567;28;20114;-74
2023/06/02 04:06:21;;;;;;;42.25;30.27;;;8.80;99.90;;;;;;4965186;28;20093;-74
2023/06/02 04:08:47;;;;;;;33.30;29.70;;;8.80;99.90;;;;;;4964649;28;20425;-74
2023/06/02 04:11:14;;;;;;;37.05;30.13;;;8.80;99.90;;;;;;4965583;28;20771;-74
2023/06/02 04:13:41;;;;;;;36.15;30.40;;;8.80;99.90;;;;;;4981322;28;20134;-74
2023/06/02 04:16:09;;;;;;;36.88;31.20;;;8.80;99.90;;;;;;4969185;28;20125;-76
2023/06/02 04:18:38;;;;;;;36.47;30.35;;;8.90;99.90;;;;;;4949021;28;20061;-76
2023/06/02 04:21:07;;;;;;;33.60;30.35;;;8.90;99.90;;;;;;4968126;28;20429;-75
2023/06/02 04:23:37;;;;;;;36.13;30.60;;;8.70;99.90;;;;;;4972069;28;20165;-73
2023/06/02 04:26:04;;;;;;;36.22;31.40;;;8.70;99.90;;;;;;4968475;28;20476;-76
2023/06/02 04:28:33;;;;;;;36.78;32.78;;;8.70;99.90;;;;;;4967624;28;20042;-73
2023/06/02 04:31:02;;;;;;;34.45;29.35;;;8.80;99.90;;;;;;4969782;28;20104;-73
2023/06/02 04:33:32;;;;;;;33.22;29.65;;;8.80;99.90;;;;;;4965943;28;20046;-74
2023/06/02 04:36:00;;;;;;;38.97;31.08;;;8.70;99.90;;;;;;4967948;28;20058;-75
2023/06/02 04:38:27;;;;;;;32.85;29.30;;;8.80;99.90;;;;;;4968574;28;20043;-76
2023/06/02 04:40:56;;;;;;;33.63;30.08;;;8.90;99.90;;;;;;4965941;28;20047;-74
2023/06/02 04:43:23;;;;;;;39.88;29.38;;;8.70;99.90;;;;;;4972762;28;20700;-75
2023/06/02 04:45:50;;;;;;;32.40;29.40;;;8.60;99.90;;;;;;4965089;28;20051;-76
2023/06/02 04:48:19;;;;;;;31.27;27.92;;;8.70;99.90;;;;;;4969545;28;20196;-76
2023/06/02 04:50:45;;;;;;;35.28;29.52;;;8.80;99.90;;;;;;4966675;28;20055;-73
2023/06/02 04:53:15;;;;;;;32.47;28.92;;;8.80;99.90;;;;;;4968203;28;20034;-73
2023/06/02 04:55:44;;;;;;;32.67;29.05;;;8.80;99.90;;;;;;4973874;28;20186;-74
2023/06/02 04:58:12;;;;;;;35.10;28.42;;;8.90;99.90;;;;;;4955317;28;20499;-73
2023/06/02 05:00:40;;;;;;;33.20;28.58;;;8.90;99.90;;;;;;4965038;28;20426;-74
2023/06/02 05:03:08;;;;;;;32.67;28.98;;;9.00;99.90;;;;;;4967686;28;20307;-74
2023/06/02 05:05:35;;;;;;;34.70;29.20;;;9.00;99.90;;;;;;4982798;28;20402;-74
2023/06/02 05:08:02;;;;;;;33.40;29.88;;;8.90;99.90;;;;;;4948305;28;20493;-75
2023/06/02 05:10:29;;;;;;;35.92;30.58;;;9.00;99.90;;;;;;4971119;28;20269;-74
2023/06/02 05:12:56;;;;;;;33.30;30.23;;;9.00;99.90;;;;;;4964831;28;20284;-73
2023/06/02 05:15:23;;;;;;;34.78;29.85;;;9.00;99.90;;;;;;4972445;28;20120;-73
2023/06/02 05:17:51;;;;;;;33.80;30.27;;;9.00;99.90;;;;;;4985616;28;20073;-74
2023/06/02 05:20:19;;;;;;;35.70;30.33;;;8.90;99.90;;;;;;4970223;28;20138;-74
2023/06/02 05:22:46;;;;;;;33.22;29.77;;;8.90;99.90;;;;;;4950828;28;20274;-72
2023/06/02 05:25:14;;;;;;;33.75;30.73;;;9.00;99.90;;;;;;4966677;28;20386;-74
2023/06/02 05:27:41;;;;;;;34.13;30.00;;;9.00;99.90;;;;;;4977805;28;20720;-73
2023/06/02 05:30:09;;;;;;;34.70;31.55;;;9.10;99.90;;;;;;4967469;28;20046;-75
2023/06/02 05:32:37;;;;;;;35.63;31.35;;;9.20;99.90;;;;;;4955275;28;20056;-75
2023/06/02 05:35:06;;;;;;;34.38;30.92;;;9.10;99.90;;;;;;4966120;28;20196;-76
2023/06/02 05:37:34;;;;;;;33.78;30.50;;;9.30;99.90;;;;;;4969881;28;20038;-75
2023/06/02 05:40:01;;;;;;;33.10;30.00;;;9.40;99.90;;;;;;4965740;28;20246;-75
2023/06/02 05:42:29;;;;;;;38.22;31.67;;;9.40;99.90;;;;;;4985249;28;20061;-76
2023/06/02 05:44:57;;;;;;;35.60;30.50;;;9.40;99.90;;;;;;4970371;28;20125;-73
2023/06/02 05:47:26;;;;;;;35.75;30.55;;;9.40;99.90;;;;;;4968578;28;20260;-75
2023/06/02 05:49:52;;;;;;;32.55;29.00;;;9.30;99.90;;;;;;4966870;28;20046;-74
2023/06/02 05:52:19;;;;;;;33.42;30.27;;;9.20;99.90;;;;;;4985214;28;20285;-75
2023/06/02 05:54:46;;;;;;;32.95;28.92;;;9.20;99.90;;;;;;4967257;28;20054;-75
2023/06/02 05:57:13;;;;;;;36.17;29.00;;;9.30;99.90;;;;;;4967806;28;20031;-75
2023/06/02 05:59:40;;;;;;;36.70;30.85;;;9.30;99.90;;;;;;4968193;28;20344;-74
2023/06/02 06:02:07;;;;;;;31.35;28.08;;;9.40;99.90;;;;;;4961214;28;20505;-75
2023/06/02 06:04:34;;;;;;;32.10;28.98;;;9.50;99.90;;;;;;4969905;28;20497;-74
2023/06/02 06:07:02;;;;;;;30.77;28.02;;;9.80;99.90;;;;;;4963525;28;20175;-74
2023/06/02 06:09:30;;;;;;;31.30;28.52;;;10.00;99.90;;;;;;4954877;28;20046;-74
2023/06/02 06:11:57;;;;;;;31.95;29.02;;;10.20;99.90;;;;;;4982762;28;20068;-73
2023/06/02 06:14:24;;;;;;;32.25;28.90;;;10.20;99.90;;;;;;4955052;28;20050;-74
2023/06/02 06:16:51;;;;;;;34.85;30.02;;;10.30;99.90;;;;;;4969233;28;20050;-73
2023/06/02 06:19:18;;;;;;;33.13;29.73;;;10.30;99.90;;;;;;4965866;28;20064;-75
2023/06/02 06:21:45;;;;;;;33.38;30.00;;;10.30;99.90;;;;;;4969756;28;20544;-74
2023/06/02 06:24:12;;;;;;;36.65;30.05;;;10.50;99.90;;;;;;4964568;28;20050;-75
2023/06/02 06:26:39;;;;;;;33.42;30.00;;;10.70;99.90;;;;;;4966989;28;20313;-74
2023/06/02 06:29:06;;;;;;;33.10;29.92;;;10.80;99.90;;;;;;4967016;28;20096;-73
2023/06/02 06:31:34;;;;;;;32.58;29.23;;;10.40;99.90;;;;;;4981132;28;20130;-73
2023/06/02 06:34:02;;;;;;;32.33;28.85;;;10.20;99.90;;;;;;4967109;28;20046;-72
2023/06/02 06:36:29;;;;;;;32.30;29.25;;;9.70;99.90;;;;;;4966782;28;20046;-74
2023/06/02 06:38:56;;;;;;;32.15;29.00;;;9.90;99.90;;;;;;4963741;28;20062;-75
2023/06/02 06:41:24;;;;;;;37.40;29.33;;;10.10;99.90;;;;;;4948633;28;20533;-73
2023/06/02 06:43:51;;;;;;;31.75;28.50;;;10.20;99.90;;;;;;4985478;28;20054;-74
2023/06/02 06:46:19;;;;;;;32.33;29.02;;;10.30;99.90;;;;;;4981601;28;20160;-75
2023/06/02 06:48:48;;;;;;;33.22;27.80;;;10.30;99.90;;;;;;4965559;28;20057;-76
2023/06/02 06:51:17;;;;;;;32.50;27.50;;;9.80;99.90;;;;;;4966053;28;20053;-75
2023/06/02 06:53:44;;;;;;;31.75;28.50;;;10.00;99.90;;;;;;4961177;28;20051;-76
2023/06/02 06:56:11;;;;;;;34.28;28.48;;;10.50;99.90;;;;;;4968805;28;20715;-74
2023/06/02 06:58:38;;;;;;;31.83;28.80;;;10.90;99.90;;;;;;4967106;28;20047;-75
2023/06/02 07:01:04;;;;;;;31.83;28.85;;;11.20;99.90;;;;;;4963946;28;20069;-75
2023/06/02 07:03:31;;;;;;;33.00;28.30;;;11.20;99.90;;;;;;4968999;28;20065;-75
2023/06/02 07:05:59;;;;;;;31.85;28.60;;;11.30;99.90;;;;;;4970196;28;20483;-76
2023/06/02 07:08:28;;;;;;;35.38;30.23;;;11.40;99.90;;;;;;4970503;28;20058;-75
2023/06/02 07:10:55;;;;;;;34.75;30.38;;;11.70;99.90;;;;;;4967268;28;20296;-75
2023/06/02 07:13:23;;;;;;;43.22;32.00;;;11.30;99.90;;;;;;4968426;28;20054;-75
2023/06/02 07:15:50;;;;;;;34.10;30.83;;;11.30;99.90;;;;;;4964899;28;20125;-75
2023/06/02 07:18:17;;;;;;;34.85;31.52;;;11.00;99.90;;;;;;4965500;28;20324;-76
2023/06/02 07:20:46;;;;;;;35.38;31.92;;;11.30;99.90;;;;;;4966796;28;20520;-75
2023/06/02 07:23:15;;;;;;;36.42;32.92;;;11.50;99.90;;;;;;4964921;28;20041;-75
2023/06/02 07:25:42;;;;;;;36.75;32.42;;;11.80;99.90;;;;;;4962858;28;20584;-76
2023/06/02 07:28:09;;;;;;;39.65;35.55;;;11.80;99.90;;;;;;4966550;28;20318;-75
2023/06/02 07:30:36;;;;;;;36.70;32.92;;;12.00;99.90;;;;;;4966543;28;20038;-75
2023/06/02 07:33:03;;;;;;;34.75;31.42;;;12.00;99.90;;;;;;4968727;28;20042;-74
2023/06/02 07:35:30;;;;;;;34.08;30.88;;;12.20;99.90;;;;;;4970828;28;20053;-74
2023/06/02 07:37:57;;;;;;;34.67;31.13;;;12.30;99.90;;;;;;4965415;28;20056;-74
2023/06/02 07:40:24;;;;;;;36.35;32.22;;;11.90;99.90;;;;;;4964931;28;20057;-74
2023/06/02 07:42:50;;;;;;;36.63;32.90;;;11.90;99.90;;;;;;4969237;28;20064;-75
2023/06/02 07:45:17;;;;;;;34.97;32.20;;;11.90;99.90;;;;;;4981666;28;20134;-77
2023/06/02 07:47:45;;;;;;;36.83;33.13;;;11.90;99.90;;;;;;4970844;28;20046;-77
2023/06/02 07:50:12;;;;;;;40.22;34.40;;;11.80;99.90;;;;;;4974611;28;20042;-77
2023/06/02 07:52:39;;;;;;;42.22;33.70;;;11.80;99.90;;;;;;4972659;28;20042;-75
2023/06/02 07:55:06;;;;;;;34.50;31.58;;;12.30;99.90;;;;;;4971913;28;20381;-76
2023/06/02 07:57:32;;;;;;;35.95;32.53;;;12.50;99.90;;;;;;4978460;28;20572;-77
2023/06/02 08:00:15;;;;;;;35.08;31.77;;;12.70;99.90;;;;;;4972529;28;20596;-74
2023/06/02 08:02:43;;;;;;;35.40;31.88;;;12.80;99.90;;;;;;4970682;28;20361;-74
2023/06/02 08:05:10;;;;;;;34.85;31.30;;;12.80;99.90;;;;;;4972683;28;20106;-76
2023/06/02 08:07:37;;;;;;;34.72;31.17;;;12.80;99.90;;;;;;4977668;28;20045;-76
2023/06/02 08:10:05;;;;;;;33.53;30.42;;;12.80;99.90;;;;;;4970589;28;20101;-76
2023/06/02 08:12:32;;;;;;;33.85;30.55;;;13.00;99.90;;;;;;4978120;28;20050;-77
2023/06/02 08:14:59;;;;;;;34.65;31.15;;;13.10;99.90;;;;;;4968700;28;20066;-76
2023/06/02 08:17:29;;;;;;;34.70;31.00;;;13.20;99.90;;;;;;4976554;28;20104;-76
2023/06/02 08:19:57;;;;;;;32.38;29.45;;;13.40;99.90;;;;;;4977133;28;20390;-76
2023/06/02 08:22:25;;;;;;;35.83;30.98;;;13.40;99.90;;;;;;4974588;28;20046;-77
2023/06/02 08:24:55;;;;;;;33.60;30.55;;;13.50;99.90;;;;;;4969741;28;20959;-75
2023/06/02 08:27:21;;;;;;;34.80;31.40;;;13.30;99.90;;;;;;4991889;28;20453;-76
2023/06/02 08:29:51;;;;;;;34.70;31.13;;;13.00;99.90;;;;;;4972156;28;20461;-75
2023/06/02 08:32:19;;;;;;;36.35;32.88;;;12.70;99.90;;;;;;4978861;28;20040;-75
2023/06/02 08:34:47;;;;;;;34.13;30.85;;;12.90;99.90;;;;;;4989212;28;20073;-75
2023/06/02 08:37:17;;;;;;;34.08;31.23;;;13.20;99.90;;;;;;4973183;28;20333;-76
2023/06/02 08:39:48;;;;;;;34.20;30.73;;;13.60;99.90;;;;;;4972522;28;20054;-76
2023/06/02 08:42:16;;;;;;;33.58;30.25;;;13.90;99.90;;;;;;4969706;28;20070;-75
2023/06/02 08:44:44;;;;;;;34.65;31.10;;;13.90;99.90;;;;;;4969863;28;20069;-77
2023/06/02 08:47:14;;;;;;;35.00;31.48;;;13.80;99.90;;;;;;4975360;28;20759;-75
2023/06/02 08:49:48;;;;;;;35.13;32.05;;;13.80;99.90;;;;;;4973648;28;20208;-75
2023/06/02 08:52:20;;;;;;;35.63;31.50;;;13.90;99.90;;;;;;4966503;28;20047;-74
2023/06/02 08:54:47;;;;;;;38.08;32.08;;;13.90;99.90;;;;;;4973143;28;20467;-75
2023/06/02 08:57:16;;;;;;;34.10;30.52;;;13.90;99.90;;;;;;4974875;28;20137;-75
2023/06/02 08:59:44;;;;;;;34.42;30.77;;;13.90;99.90;;;;;;4974605;28;20093;-74
2023/06/02 09:02:15;;;;;;;34.08;30.40;;;13.50;99.90;;;;;;4962869;28;20126;-75
2023/06/02 09:04:42;;;;;;;35.40;31.63;;;13.70;99.90;;;;;;4971811;28;20053;-74
2023/06/02 09:07:12;;;;;;;33.85;30.38;;;13.60;99.90;;;;;;4965332;28;20042;-76
2023/06/02 09:09:40;;;;;;;34.85;31.85;;;13.60;99.90;;;;;;4968430;28;20054;-76
2023/06/02 09:12:08;;;;;;;35.63;32.33;;;13.60;99.90;;;;;;4972392;28;20039;-74
2023/06/02 09:14:36;;;;;;;36.85;33.38;;;13.50;99.90;;;;;;4967610;28;20137;-75
2023/06/02 09:17:03;;;;;;;34.03;30.83;;;14.10;99.90;;;;;;4968903;28;20124;-75
2023/06/02 09:19:49;;;;;;;34.15;31.00;;;14.70;99.90;;;;;;4965916;28;20043;-74
2023/06/02 09:22:16;;;;;;;35.22;31.88;;;15.20;99.90;;;;;;4981159;28;20035;-75
2023/06/02 09:24:43;;;;;;;35.88;32.42;;;15.40;99.90;;;;;;4971075;28;20085;-74
2023/06/02 09:27:14;;;;;;;37.08;30.55;;;15.70;99.90;;;;;;4964454;28;20133;-76
2023/06/02 09:29:42;;;;;;;34.58;31.27;;;15.50;99.90;;;;;;4966889;28;20666;-76
2023/06/02 09:32:17;;;;;;;32.75;30.05;;;15.50;99.90;;;;;;4972247;28;20137;-75
2023/06/02 09:34:45;;;;;;;34.45;31.17;;;14.90;99.90;;;;;;4972085;28;20050;-75
2023/06/02 09:37:14;;;;;;;35.67;32.10;;;14.60;99.90;;;;;;4970553;28;20042;-76
2023/06/02 09:39:48;;;;;;;35.78;32.45;;;14.90;99.90;;;;;;4972557;28;20061;-74
2023/06/02 09:42:17;;;;;;;34.45;31.05;;;15.20;99.90;;;;;;4971924;28;20035;-74
2023/06/02 09:45:07;;;;;;;33.72;30.13;;;15.40;99.90;;;;;;4973377;28;20428;-76
2023/06/02 09:47:39;;;;;;;32.70;29.42;;;15.20;99.90;;;;;;4971039;28;20035;-74
2023/06/02 09:50:07;;;;;;;33.50;30.02;;;15.20;99.90;;;;;;4973372;28;20144;-74
2023/06/02 09:52:34;;;;;;;33.10;29.85;;;15.50;99.90;;;;;;4968223;28;20117;-74
2023/06/02 09:55:06;;;;;;;34.63;30.98;;;15.60;99.90;;;;;;4969893;28;20132;-74
2023/06/02 09:57:33;;;;;;;33.60;30.35;;;15.30;99.90;;;;;;4969355;28;20089;-75
2023/06/02 10:00:01;;;;;;;34.92;31.63;;;15.30;99.90;;;;;;4981594;28;20879;-75
2023/06/02 10:02:38;;;;;;;35.30;31.83;;;15.20;99.90;;;;;;4986756;28;20038;-75
2023/06/02 10:05:05;;;;;;;35.90;32.05;;;14.40;99.90;;;;;;4967326;28;20054;-75
2023/06/02 10:08:00;;;;;;;35.45;31.02;;;14.60;99.90;;;;;;4963309;28;20505;-75
2023/06/02 10:10:46;;;;;;;32.53;29.52;;;14.20;99.90;;;;;;4967640;28;20047;-75
2023/06/02 10:13:44;;;;;;;37.17;31.67;;;14.80;99.90;;;;;;4983177;28;20051;-74
2023/06/02 10:16:14;;;;;;;33.60;30.67;;;15.10;99.90;;;;;;4915908;28;20101;-76
2023/06/02 10:19:12;;;;;;;34.33;31.05;;;15.30;99.90;;;;;;4972559;28;20057;-74
2023/06/02 10:22:01;;;;;;;33.85;30.35;;;15.60;99.90;;;;;;4966742;28;20537;-75
2023/06/02 10:24:37;;;;;;;36.53;31.02;;;15.20;99.90;;;;;;4958032;28;20352;-75
2023/06/02 10:27:37;;;;;;;32.25;29.13;;;14.90;99.90;;;;;;4968752;28;20138;-74
2023/06/02 10:30:05;;;;;;;31.70;29.13;;;15.30;99.90;;;;;;4965226;28;20084;-75
2023/06/02 10:32:44;;;;;;;37.10;31.02;;;15.40;99.90;;;;;;4967286;28;20109;-75
2023/06/02 10:35:11;;;;;;;33.88;30.27;;;15.30;99.90;;;;;;4965912;28;20045;-76
2023/06/02 10:37:39;;;;;;;33.72;30.90;;;14.90;99.90;;;;;;4971516;28;20282;-75
2023/06/02 10:40:10;;;;;;;37.35;33.90;;;15.20;99.90;;;;;;4969599;28;20035;-75
2023/06/02 10:42:38;;;;;;;34.33;30.88;;;14.80;99.90;;;;;;4968536;28;20052;-75
2023/06/02 10:45:17;;;;;;;35.95;32.63;;;15.60;99.90;;;;;;4965057;28;20543;-74
2023/06/02 10:47:46;;;;;;;35.70;32.63;;;16.20;99.90;;;;;;4970964;28;20152;-74
2023/06/02 10:50:17;;;;;;;35.67;32.55;;;16.40;99.90;;;;;;4972260;28;20070;-73
2023/06/02 10:53:00;;;;;;;34.08;31.05;;;16.00;99.90;;;;;;4974049;28;20131;-75
2023/06/02 10:55:31;;;;;;;35.58;32.35;;;15.70;99.90;;;;;;4970739;28;20470;-75
2023/06/02 10:58:05;;;;;;;37.83;34.60;;;16.30;99.90;;;;;;4979154;28;20434;-74
2023/06/02 11:00:32;;;;;;;36.33;32.90;;;16.20;99.90;;;;;;4977637;28;20223;-74
2023/06/02 11:03:00;;;;;;;37.92;34.67;;;16.30;99.90;;;;;;4978472;28;20057;-74
2023/06/02 11:05:33;;;;;;;34.83;31.95;;;16.70;99.90;;;;;;4964632;28;20034;-75
2023/06/02 11:08:15;;;;;;;36.65;33.42;;;17.50;99.90;;;;;;4966551;28;20310;-74
2023/06/02 11:10:47;;;;;;;39.55;36.10;;;17.30;99.90;;;;;;4970352;28;20109;-74
2023/06/02 11:13:19;;;;;;;34.38;31.27;;;17.80;99.90;;;;;;4962578;28;20061;-74
2023/06/02 11:15:55;;;;;;;33.35;30.27;;;17.50;99.90;;;;;;4967909;28;20583;-74
2023/06/02 11:18:22;;;;;;;32.55;29.70;;;16.90;99.90;;;;;;4969830;28;20093;-75
2023/06/02 11:20:50;;;;;;;36.10;33.08;;;16.50;99.90;;;;;;4965080;28;20265;-75
2023/06/02 11:23:18;;;;;;;35.35;32.67;;;17.00;99.90;;;;;;4965026;28;20523;-75
2023/06/02 11:25:46;;;;;;;38.78;35.78;;;17.70;99.90;;;;;;4971049;28;20097;-74
2023/06/02 11:28:23;;;;;;;38.00;34.90;;;17.80;99.90;;;;;;4963444;28;20046;-76
2023/06/02 11:31:04;;;;;;;33.55;30.45;;;18.00;99.90;;;;;;4969072;28;20572;-75
2023/06/02 11:33:33;;;;;;;38.17;35.28;;;17.40;99.90;;;;;;4967971;28;20046;-76
2023/06/02 11:36:00;;;;;;;35.80;33.00;;;16.40;99.90;;;;;;4967083;28;20619;-80
2023/06/02 11:38:32;;;;;;;33.75;30.50;;;16.30;99.90;;;;;;4967993;28;20063;-75
2023/06/02 11:41:15;;;;;;;35.22;32.47;;;16.40;99.90;;;;;;4971194;28;20316;-77
2023/06/02 11:43:50;;;;;;;31.92;29.27;;;17.10;99.90;;;;;;4961834;28;20051;-75
2023/06/02 11:46:19;;;;;;;39.78;36.60;;;16.50;99.90;;;;;;4969295;28;20049;-75
2023/06/02 11:48:46;;;;;;;39.13;35.75;;;16.10;99.90;;;;;;4968519;28;20407;-76
2023/06/02 11:51:15;;;;;;;38.58;35.08;;;16.80;99.90;;;;;;4963767;28;20046;-76
2023/06/02 11:53:46;;;;;;;39.47;36.22;;;16.90;99.90;;;;;;4972259;28;20527;-76
2023/06/02 11:56:15;;;;;;;33.67;30.67;;;17.40;99.90;;;;;;4967397;28;20446;-77
2023/06/02 11:58:46;;;;;;;36.72;33.83;;;17.70;99.90;;;;;;4973324;28;20074;-75
2023/06/02 12:01:21;;;;;;;36.65;33.00;;;17.60;99.90;;;;;;4969835;28;20367;-76
2023/06/02 12:04:00;;;;;;;34.47;31.42;;;16.70;99.90;;;;;;4969659;28;20366;-77
2023/06/02 12:06:29;;;;;;;37.15;34.35;;;17.10;99.90;;;;;;4964034;28;20047;-76
2023/06/02 12:08:56;;;;;;;37.85;34.90;;;17.40;99.90;;;;;;4967902;28;20503;-76
2023/06/02 12:11:23;;;;;;;31.45;29.17;;;17.80;99.90;;;;;;4981426;28;20073;-75
2023/06/02 12:14:05;;;;;;;33.88;30.92;;;17.40;99.90;;;;;;4969440;28;20051;-76
2023/06/02 12:16:34;;;;;;;41.03;37.28;;;16.70;99.90;;;;;;4966691;28;20050;-75
2023/06/02 12:19:20;;;;;;;36.85;34.28;;;17.00;99.90;;;;;;4967000;28;20090;-76
2023/06/02 12:21:50;;;;;;;37.25;34.25;;;17.10;99.90;;;;;;4966467;28;20105;-76
2023/06/02 12:24:31;;;;;;;37.25;34.70;;;17.20;99.90;;;;;;4965064;28;20071;-77
2023/06/02 12:26:58;;;;;;;32.00;29.30;;;17.90;99.90;;;;;;4966276;28;20047;-77
2023/06/02 12:29:25;;;;;;;32.88;30.38;;;18.50;99.90;;;;;;4966215;28;20085;-76
2023/06/02 12:31:58;;;;;;;37.83;34.97;;;18.50;99.90;;;;;;4970673;28;20347;-75
2023/06/02 12:34:26;;;;;;;33.47;30.98;;;18.30;99.90;;;;;;4963050;28;20046;-75
2023/06/02 12:36:53;;;;;;;35.72;32.90;;;17.60;99.90;;;;;;4968773;28;20422;-75
2023/06/02 12:39:20;;;;;;;32.40;29.85;;;17.30;99.90;;;;;;4984482;28;20512;-76
2023/06/02 12:41:47;;;;;;;34.28;31.17;;;17.50;99.90;;;;;;4968579;28;20047;-77